Oak Grove, Louisiana
Current Conditions -  °F | °C
As of 8:55 PM on Wednesday 26 Nov 2014 (Local Time) from KBQP Reporting Station
Clear Clear  
Wind Chill: 50°   Ceiling: Unl
Heat Index: 50°   Visibility: 10mi
Dew Point: 35°   Wind: 3mph
Humidity: 56%   Direction: 310°NW
Pressure: 30.24"   Gusts: NA
Location:  32.86°N, 91.39°W
Report Text: KBQP 270255Z AUTO 31003KT 10SM CLR 10/01 A3024 RMK AO2 T00990014
Loading
Personal Weather Stations






























Interactive Weather Map New forecast layout! Learn more

10-Day Weather Forecast

Advertisements
Track Severe Weather on mobile